sensor_id;sensor_type;location;lat;lon;timestamp;P1;durP1;ratioP1;P2;durP2;ratioP2
36923;SDS011;22841;50.252;18.688;2022-09-17T00:01:03;16.98;;;9.63;;
36923;SDS011;22841;50.252;18.688;2022-09-17T00:03:30;17.02;;;10.02;;
36923;SDS011;22841;50.252;18.688;2022-09-17T00:06:04;22.10;;;9.77;;
36923;SDS011;22841;50.252;18.688;2022-09-17T00:08:33;20.17;;;9.90;;
36923;SDS011;22841;50.252;18.688;2022-09-17T00:11:11;20.77;;;8.90;;
36923;SDS011;22841;50.252;18.688;2022-09-17T00:13:43;19.77;;;8.88;;
36923;SDS011;22841;50.252;18.688;2022-09-17T00:16:09;16.42;;;8.50;;
36923;SDS011;22841;50.252;18.688;2022-09-17T00:18:36;19.23;;;9.35;;
36923;SDS011;22841;50.252;18.688;2022-09-17T00:21:06;18.25;;;8.40;;
36923;SDS011;22841;50.252;18.688;2022-09-17T00:23:41;15.63;;;7.75;;
36923;SDS011;22841;50.252;18.688;2022-09-17T00:26:07;12.57;;;7.88;;
36923;SDS011;22841;50.252;18.688;2022-09-17T00:28:33;12.13;;;8.10;;
36923;SDS011;22841;50.252;18.688;2022-09-17T00:30:59;14.20;;;7.97;;
36923;SDS011;22841;50.252;18.688;2022-09-17T00:33:25;12.48;;;7.93;;
36923;SDS011;22841;50.252;18.688;2022-09-17T00:36:01;12.07;;;7.50;;
36923;SDS011;22841;50.252;18.688;2022-09-17T00:38:28;14.32;;;7.40;;
36923;SDS011;22841;50.252;18.688;2022-09-17T00:40:54;11.60;;;6.88;;
36923;SDS011;22841;50.252;18.688;2022-09-17T00:46:00;15.02;;;6.75;;
36923;SDS011;22841;50.252;18.688;2022-09-17T00:48:27;10.90;;;6.82;;
36923;SDS011;22841;50.252;18.688;2022-09-17T00:50:53;11.30;;;7.10;;
36923;SDS011;22841;50.252;18.688;2022-09-17T00:53:20;10.80;;;6.57;;
36923;SDS011;22841;50.252;18.688;2022-09-17T00:58:17;13.98;;;7.38;;
36923;SDS011;22841;50.252;18.688;2022-09-17T01:00:47;8.60;;;6.80;;
36923;SDS011;22841;50.252;18.688;2022-09-17T01:03:13;7.18;;;6.25;;
36923;SDS011;22841;50.252;18.688;2022-09-17T01:11:01;10.20;;;7.22;;
36923;SDS011;22841;50.252;18.688;2022-09-17T01:13:47;9.48;;;6.15;;
36923;SDS011;22841;50.252;18.688;2022-09-17T01:25:27;8.15;;;6.28;;
36923;SDS011;22841;50.252;18.688;2022-09-17T01:28:21;12.65;;;6.32;;
36923;SDS011;22841;50.252;18.688;2022-09-17T01:39:05;10.32;;;7.10;;
36923;SDS011;22841;50.252;18.688;2022-09-17T01:41:50;13.48;;;7.15;;
36923;SDS011;22841;50.252;18.688;2022-09-17T01:47:11;12.38;;;7.20;;
36923;SDS011;22841;50.252;18.688;2022-09-17T01:50:02;10.52;;;6.25;;
36923;SDS011;22841;50.252;18.688;2022-09-17T01:52:37;9.95;;;6.75;;
36923;SDS011;22841;50.252;18.688;2022-09-17T01:55:07;12.50;;;6.95;;
36923;SDS011;22841;50.252;18.688;2022-09-17T01:57:46;12.63;;;7.25;;
36923;SDS011;22841;50.252;18.688;2022-09-17T02:00:22;16.25;;;6.75;;
36923;SDS011;22841;50.252;18.688;2022-09-17T02:02:51;8.82;;;6.40;;
36923;SDS011;22841;50.252;18.688;2022-09-17T02:05:28;8.30;;;6.82;;
36923;SDS011;22841;50.252;18.688;2022-09-17T02:08:04;16.33;;;7.23;;
36923;SDS011;22841;50.252;18.688;2022-09-17T02:10:38;14.18;;;6.78;;
36923;SDS011;22841;50.252;18.688;2022-09-17T02:13:16;8.95;;;6.75;;
36923;SDS011;22841;50.252;18.688;2022-09-17T02:15:54;10.75;;;6.32;;
36923;SDS011;22841;50.252;18.688;2022-09-17T02:18:38;12.80;;;6.63;;
36923;SDS011;22841;50.252;18.688;2022-09-17T02:21:13;9.93;;;6.85;;
36923;SDS011;22841;50.252;18.688;2022-09-17T02:24:32;9.30;;;6.80;;
36923;SDS011;22841;50.252;18.688;2022-09-17T02:26:45;12.95;;;7.03;;
36923;SDS011;22841;50.252;18.688;2022-09-17T02:29:21;10.80;;;7.25;;
36923;SDS011;22841;50.252;18.688;2022-09-17T02:31:51;7.68;;;6.65;;
36923;SDS011;22841;50.252;18.688;2022-09-17T02:34:17;9.43;;;6.40;;
36923;SDS011;22841;50.252;18.688;2022-09-17T02:36:44;11.98;;;7.10;;
36923;SDS011;22841;50.252;18.688;2022-09-17T02:39:11;18.23;;;8.38;;
36923;SDS011;22841;50.252;18.688;2022-09-17T02:58:46;11.85;;;7.68;;
36923;SDS011;22841;50.252;18.688;2022-09-17T03:03:58;13.93;;;7.45;;
36923;SDS011;22841;50.252;18.688;2022-09-17T03:06:27;12.57;;;7.55;;
36923;SDS011;22841;50.252;18.688;2022-09-17T03:08:54;14.90;;;7.03;;
36923;SDS011;22841;50.252;18.688;2022-09-17T03:11:21;8.23;;;6.70;;
36923;SDS011;22841;50.252;18.688;2022-09-17T03:13:48;13.18;;;8.23;;
36923;SDS011;22841;50.252;18.688;2022-09-17T03:16:14;14.05;;;7.95;;
36923;SDS011;22841;50.252;18.688;2022-09-17T03:18:40;16.70;;;8.23;;
36923;SDS011;22841;50.252;18.688;2022-09-17T03:21:06;12.65;;;6.50;;
36923;SDS011;22841;50.252;18.688;2022-09-17T03:23:32;10.60;;;7.10;;
36923;SDS011;22841;50.252;18.688;2022-09-17T03:25:58;13.10;;;7.30;;
36923;SDS011;22841;50.252;18.688;2022-09-17T03:28:25;12.93;;;7.60;;
36923;SDS011;22841;50.252;18.688;2022-09-17T03:30:51;10.13;;;7.63;;
36923;SDS011;22841;50.252;18.688;2022-09-17T03:33:18;8.70;;;6.90;;
36923;SDS011;22841;50.252;18.688;2022-09-17T03:35:44;12.52;;;7.60;;
36923;SDS011;22841;50.252;18.688;2022-09-17T03:38:11;12.73;;;7.43;;
36923;SDS011;22841;50.252;18.688;2022-09-17T03:40:38;12.63;;;7.82;;
36923;SDS011;22841;50.252;18.688;2022-09-17T03:43:05;15.65;;;7.90;;
36923;SDS011;22841;50.252;18.688;2022-09-17T03:45:31;13.45;;;8.23;;
36923;SDS011;22841;50.252;18.688;2022-09-17T03:47:57;14.23;;;8.10;;
36923;SDS011;22841;50.252;18.688;2022-09-17T03:50:23;12.15;;;8.10;;
36923;SDS011;22841;50.252;18.688;2022-09-17T03:52:52;12.95;;;8.20;;
36923;SDS011;22841;50.252;18.688;2022-09-17T03:55:19;12.57;;;8.48;;
36923;SDS011;22841;50.252;18.688;2022-09-17T03:57:45;22.98;;;10.68;;
36923;SDS011;22841;50.252;18.688;2022-09-17T04:00:11;19.52;;;10.43;;
36923;SDS011;22841;50.252;18.688;2022-09-17T04:02:39;15.68;;;9.55;;
36923;SDS011;22841;50.252;18.688;2022-09-17T04:05:06;14.10;;;9.38;;
36923;SDS011;22841;50.252;18.688;2022-09-17T04:07:32;16.60;;;9.27;;
36923;SDS011;22841;50.252;18.688;2022-09-17T04:09:58;12.48;;;8.80;;
36923;SDS011;22841;50.252;18.688;2022-09-17T04:12:24;24.58;;;9.25;;
36923;SDS011;22841;50.252;18.688;2022-09-17T04:14:50;13.25;;;8.30;;
36923;SDS011;22841;50.252;18.688;2022-09-17T04:17:19;12.20;;;8.27;;
36923;SDS011;22841;50.252;18.688;2022-09-17T04:19:45;15.13;;;9.25;;
36923;SDS011;22841;50.252;18.688;2022-09-17T04:22:11;13.27;;;8.88;;
36923;SDS011;22841;50.252;18.688;2022-09-17T04:24:37;10.82;;;7.47;;
36923;SDS011;22841;50.252;18.688;2022-09-17T04:27:03;19.30;;;8.45;;
36923;SDS011;22841;50.252;18.688;2022-09-17T04:29:29;17.42;;;9.18;;
36923;SDS011;22841;50.252;18.688;2022-09-17T04:31:55;13.20;;;9.25;;
36923;SDS011;22841;50.252;18.688;2022-09-17T04:34:21;14.55;;;9.10;;
36923;SDS011;22841;50.252;18.688;2022-09-17T04:36:47;16.52;;;9.23;;
36923;SDS011;22841;50.252;18.688;2022-09-17T04:39:14;13.02;;;8.35;;
36923;SDS011;22841;50.252;18.688;2022-09-17T04:41:40;9.95;;;8.27;;
36923;SDS011;22841;50.252;18.688;2022-09-17T04:44:06;11.95;;;8.32;;
36923;SDS011;22841;50.252;18.688;2022-09-17T04:46:32;16.45;;;8.90;;
36923;SDS011;22841;50.252;18.688;2022-09-17T04:48:58;14.48;;;8.65;;
36923;SDS011;22841;50.252;18.688;2022-09-17T04:51:24;11.90;;;8.95;;
36923;SDS011;22841;50.252;18.688;2022-09-17T04:53:50;13.05;;;9.25;;
36923;SDS011;22841;50.252;18.688;2022-09-17T04:56:16;17.85;;;9.20;;
36923;SDS011;22841;50.252;18.688;2022-09-17T04:58:42;11.95;;;8.30;;
36923;SDS011;22841;50.252;18.688;2022-09-17T05:01:08;13.55;;;8.05;;
36923;SDS011;22841;50.252;18.688;2022-09-17T05:03:34;9.95;;;7.57;;
36923;SDS011;22841;50.252;18.688;2022-09-17T05:06:00;12.27;;;7.72;;
36923;SDS011;22841;50.252;18.688;2022-09-17T05:08:26;13.15;;;8.57;;
36923;SDS011;22841;50.252;18.688;2022-09-17T05:10:52;14.50;;;9.32;;
36923;SDS011;22841;50.252;18.688;2022-09-17T05:13:18;12.15;;;9.70;;
36923;SDS011;22841;50.252;18.688;2022-09-17T05:15:44;16.50;;;8.88;;
36923;SDS011;22841;50.252;18.688;2022-09-17T05:18:10;16.17;;;9.32;;
36923;SDS011;22841;50.252;18.688;2022-09-17T05:20:36;12.75;;;9.15;;
36923;SDS011;22841;50.252;18.688;2022-09-17T05:23:03;11.52;;;9.05;;
36923;SDS011;22841;50.252;18.688;2022-09-17T05:25:29;15.00;;;8.75;;
36923;SDS011;22841;50.252;18.688;2022-09-17T05:27:55;15.85;;;9.25;;
36923;SDS011;22841;50.252;18.688;2022-09-17T05:30:21;12.65;;;9.32;;
36923;SDS011;22841;50.252;18.688;2022-09-17T05:32:56;20.38;;;9.48;;
36923;SDS011;22841;50.252;18.688;2022-09-17T05:35:23;12.27;;;8.70;;
36923;SDS011;22841;50.252;18.688;2022-09-17T05:37:49;13.02;;;9.07;;
36923;SDS011;22841;50.252;18.688;2022-09-17T05:40:15;12.75;;;8.57;;
36923;SDS011;22841;50.252;18.688;2022-09-17T05:42:41;13.40;;;8.98;;
36923;SDS011;22841;50.252;18.688;2022-09-17T05:45:08;11.23;;;8.48;;
36923;SDS011;22841;50.252;18.688;2022-09-17T05:47:34;14.45;;;8.90;;
36923;SDS011;22841;50.252;18.688;2022-09-17T05:50:00;19.45;;;9.23;;
36923;SDS011;22841;50.252;18.688;2022-09-17T05:52:28;11.90;;;9.23;;
36923;SDS011;22841;50.252;18.688;2022-09-17T05:54:54;14.40;;;9.43;;
36923;SDS011;22841;50.252;18.688;2022-09-17T05:57:21;12.82;;;8.65;;
36923;SDS011;22841;50.252;18.688;2022-09-17T05:59:47;12.95;;;8.90;;
36923;SDS011;22841;50.252;18.688;2022-09-17T06:02:13;15.95;;;9.55;;
36923;SDS011;22841;50.252;18.688;2022-09-17T06:04:39;17.42;;;8.75;;
36923;SDS011;22841;50.252;18.688;2022-09-17T06:07:05;11.13;;;8.57;;
36923;SDS011;22841;50.252;18.688;2022-09-17T06:09:35;15.60;;;9.10;;
36923;SDS011;22841;50.252;18.688;2022-09-17T06:12:07;19.88;;;8.90;;
36923;SDS011;22841;50.252;18.688;2022-09-17T06:14:33;12.18;;;7.65;;
36923;SDS011;22841;50.252;18.688;2022-09-17T06:16:59;11.27;;;8.13;;
36923;SDS011;22841;50.252;18.688;2022-09-17T06:19:26;9.57;;;7.63;;
36923;SDS011;22841;50.252;18.688;2022-09-17T06:21:52;16.92;;;7.68;;
36923;SDS011;22841;50.252;18.688;2022-09-17T06:24:19;12.15;;;7.63;;
36923;SDS011;22841;50.252;18.688;2022-09-17T06:26:45;9.75;;;7.25;;
36923;SDS011;22841;50.252;18.688;2022-09-17T06:29:12;15.23;;;7.22;;
36923;SDS011;22841;50.252;18.688;2022-09-17T06:31:40;11.13;;;6.47;;
36923;SDS011;22841;50.252;18.688;2022-09-17T06:34:08;14.90;;;7.25;;
36923;SDS011;22841;50.252;18.688;2022-09-17T06:36:36;9.57;;;7.00;;
36923;SDS011;22841;50.252;18.688;2022-09-17T06:39:02;9.15;;;6.47;;
36923;SDS011;22841;50.252;18.688;2022-09-17T06:41:28;9.90;;;7.13;;
36923;SDS011;22841;50.252;18.688;2022-09-17T06:43:54;7.93;;;5.65;;
36923;SDS011;22841;50.252;18.688;2022-09-17T06:46:20;11.27;;;6.03;;
36923;SDS011;22841;50.252;18.688;2022-09-17T06:48:46;7.43;;;5.43;;
36923;SDS011;22841;50.252;18.688;2022-09-17T06:51:12;7.35;;;5.63;;
36923;SDS011;22841;50.252;18.688;2022-09-17T06:53:39;9.30;;;5.60;;
36923;SDS011;22841;50.252;18.688;2022-09-17T06:56:06;8.27;;;5.50;;
36923;SDS011;22841;50.252;18.688;2022-09-17T06:58:34;16.90;;;5.50;;
36923;SDS011;22841;50.252;18.688;2022-09-17T07:01:04;8.40;;;6.20;;
36923;SDS011;22841;50.252;18.688;2022-09-17T07:03:30;12.57;;;5.35;;
36923;SDS011;22841;50.252;18.688;2022-09-17T07:05:56;9.32;;;4.32;;
36923;SDS011;22841;50.252;18.688;2022-09-17T07:08:23;9.98;;;4.95;;
36923;SDS011;22841;50.252;18.688;2022-09-17T07:10:50;7.05;;;4.85;;
36923;SDS011;22841;50.252;18.688;2022-09-17T07:13:20;8.82;;;4.57;;
36923;SDS011;22841;50.252;18.688;2022-09-17T07:15:53;9.57;;;4.55;;
36923;SDS011;22841;50.252;18.688;2022-09-17T07:18:20;12.27;;;5.53;;
36923;SDS011;22841;50.252;18.688;2022-09-17T07:21:00;6.20;;;4.80;;
36923;SDS011;22841;50.252;18.688;2022-09-17T07:23:29;4.72;;;3.97;;
36923;SDS011;22841;50.252;18.688;2022-09-17T07:25:57;8.32;;;4.82;;
36923;SDS011;22841;50.252;18.688;2022-09-17T07:28:25;5.47;;;4.38;;
36923;SDS011;22841;50.252;18.688;2022-09-17T07:30:52;4.13;;;3.70;;
36923;SDS011;22841;50.252;18.688;2022-09-17T07:33:19;6.07;;;4.32;;
36923;SDS011;22841;50.252;18.688;2022-09-17T07:35:53;9.50;;;4.13;;
36923;SDS011;22841;50.252;18.688;2022-09-17T07:38:20;8.32;;;4.30;;
36923;SDS011;22841;50.252;18.688;2022-09-17T07:40:54;5.05;;;3.58;;
36923;SDS011;22841;50.252;18.688;2022-09-17T07:43:27;8.73;;;4.03;;
36923;SDS011;22841;50.252;18.688;2022-09-17T07:45:57;10.05;;;4.75;;
36923;SDS011;22841;50.252;18.688;2022-09-17T07:48:25;5.95;;;3.90;;
36923;SDS011;22841;50.252;18.688;2022-09-17T07:50:52;6.20;;;3.45;;
36923;SDS011;22841;50.252;18.688;2022-09-17T07:53:19;4.40;;;3.15;;
36923;SDS011;22841;50.252;18.688;2022-09-17T07:55:53;3.40;;;2.90;;
36923;SDS011;22841;50.252;18.688;2022-09-17T07:58:26;4.82;;;3.00;;
36923;SDS011;22841;50.252;18.688;2022-09-17T08:03:24;3.55;;;2.83;;
36923;SDS011;22841;50.252;18.688;2022-09-17T08:05:51;2.88;;;2.58;;
36923;SDS011;22841;50.252;18.688;2022-09-17T08:08:17;4.65;;;3.50;;
36923;SDS011;22841;50.252;18.688;2022-09-17T08:10:43;3.72;;;2.97;;
36923;SDS011;22841;50.252;18.688;2022-09-17T08:13:09;4.05;;;3.03;;
36923;SDS011;22841;50.252;18.688;2022-09-17T08:15:35;3.72;;;2.33;;
36923;SDS011;22841;50.252;18.688;2022-09-17T08:18:02;3.15;;;2.50;;
36923;SDS011;22841;50.252;18.688;2022-09-17T08:20:28;5.65;;;2.50;;
36923;SDS011;22841;50.252;18.688;2022-09-17T08:22:58;7.65;;;3.05;;
36923;SDS011;22841;50.252;18.688;2022-09-17T08:25:25;3.08;;;2.30;;
36923;SDS011;22841;50.252;18.688;2022-09-17T08:27:52;4.57;;;2.42;;
36923;SDS011;22841;50.252;18.688;2022-09-17T08:30:21;3.92;;;2.65;;
36923;SDS011;22841;50.252;18.688;2022-09-17T08:32:47;5.90;;;2.55;;
36923;SDS011;22841;50.252;18.688;2022-09-17T08:35:13;5.28;;;2.78;;
36923;SDS011;22841;50.252;18.688;2022-09-17T08:37:40;3.15;;;2.50;;
36923;SDS011;22841;50.252;18.688;2022-09-17T08:40:11;3.42;;;2.38;;
36923;SDS011;22841;50.252;18.688;2022-09-17T08:42:52;4.32;;;2.85;;
36923;SDS011;22841;50.252;18.688;2022-09-17T08:45:26;4.88;;;2.53;;
36923;SDS011;22841;50.252;18.688;2022-09-17T08:47:55;5.07;;;2.90;;
36923;SDS011;22841;50.252;18.688;2022-09-17T08:50:35;5.88;;;2.63;;
36923;SDS011;22841;50.252;18.688;2022-09-17T08:53:16;6.95;;;2.50;;
36923;SDS011;22841;50.252;18.688;2022-09-17T09:07:05;5.20;;;2.92;;
36923;SDS011;22841;50.252;18.688;2022-09-17T09:09:38;7.60;;;3.15;;
36923;SDS011;22841;50.252;18.688;2022-09-17T09:12:32;4.43;;;2.88;;
36923;SDS011;22841;50.252;18.688;2022-09-17T09:15:05;5.20;;;2.85;;
36923;SDS011;22841;50.252;18.688;2022-09-17T09:17:52;5.13;;;2.58;;
36923;SDS011;22841;50.252;18.688;2022-09-17T09:20:26;4.63;;;2.67;;
36923;SDS011;22841;50.252;18.688;2022-09-17T09:23:07;7.70;;;2.90;;
36923;SDS011;22841;50.252;18.688;2022-09-17T09:25:46;5.50;;;3.22;;
36923;SDS011;22841;50.252;18.688;2022-09-17T09:28:40;3.25;;;2.50;;
36923;SDS011;22841;50.252;18.688;2022-09-17T09:33:49;3.90;;;2.92;;
36923;SDS011;22841;50.252;18.688;2022-09-17T09:36:17;3.38;;;2.92;;
36923;SDS011;22841;50.252;18.688;2022-09-17T09:38:53;5.47;;;3.50;;
36923;SDS011;22841;50.252;18.688;2022-09-17T09:41:29;4.68;;;2.58;;
36923;SDS011;22841;50.252;18.688;2022-09-17T09:44:06;2.92;;;2.60;;
36923;SDS011;22841;50.252;18.688;2022-09-17T09:46:58;5.93;;;2.70;;
36923;SDS011;22841;50.252;18.688;2022-09-17T09:55:50;4.05;;;2.85;;
36923;SDS011;22841;50.252;18.688;2022-09-17T09:58:39;5.15;;;3.10;;
36923;SDS011;22841;50.252;18.688;2022-09-17T10:01:13;5.78;;;2.88;;
36923;SDS011;22841;50.252;18.688;2022-09-17T10:03:41;15.77;;;4.18;;
36923;SDS011;22841;50.252;18.688;2022-09-17T10:06:10;6.80;;;3.17;;
36923;SDS011;22841;50.252;18.688;2022-09-17T10:09:07;4.63;;;3.17;;
36923;SDS011;22841;50.252;18.688;2022-09-17T10:11:28;5.00;;;3.22;;
36923;SDS011;22841;50.252;18.688;2022-09-17T10:17:09;8.38;;;4.38;;
36923;SDS011;22841;50.252;18.688;2022-09-17T10:19:44;7.07;;;3.15;;
36923;SDS011;22841;50.252;18.688;2022-09-17T10:22:22;13.10;;;4.45;;
36923;SDS011;22841;50.252;18.688;2022-09-17T10:24:52;9.90;;;4.30;;
36923;SDS011;22841;50.252;18.688;2022-09-17T10:27:20;6.50;;;3.50;;
36923;SDS011;22841;50.252;18.688;2022-09-17T10:29:48;7.22;;;4.18;;
36923;SDS011;22841;50.252;18.688;2022-09-17T10:32:20;3.30;;;2.58;;
36923;SDS011;22841;50.252;18.688;2022-09-17T10:37:43;5.25;;;3.35;;
36923;SDS011;22841;50.252;18.688;2022-09-17T10:42:50;7.22;;;3.30;;
36923;SDS011;22841;50.252;18.688;2022-09-17T10:48:03;7.50;;;3.78;;
36923;SDS011;22841;50.252;18.688;2022-09-17T10:50:30;4.35;;;3.83;;
36923;SDS011;22841;50.252;18.688;2022-09-17T10:52:59;7.55;;;4.68;;
36923;SDS011;22841;50.252;18.688;2022-09-17T10:55:29;11.52;;;3.75;;
36923;SDS011;22841;50.252;18.688;2022-09-17T11:17:00;5.30;;;3.22;;
36923;SDS011;22841;50.252;18.688;2022-09-17T11:22:42;5.10;;;3.25;;
36923;SDS011;22841;50.252;18.688;2022-09-17T11:25:18;4.97;;;3.40;;
36923;SDS011;22841;50.252;18.688;2022-09-17T11:37:03;3.35;;;3.05;;
36923;SDS011;22841;50.252;18.688;2022-09-17T11:39:19;3.83;;;3.25;;
36923;SDS011;22841;50.252;18.688;2022-09-17T11:41:51;3.47;;;2.67;;
36923;SDS011;22841;50.252;18.688;2022-09-17T11:47:33;10.75;;;4.78;;
36923;SDS011;22841;50.252;18.688;2022-09-17T11:52:42;7.15;;;3.88;;
36923;SDS011;22841;50.252;18.688;2022-09-17T11:57:46;5.97;;;3.42;;
36923;SDS011;22841;50.252;18.688;2022-09-17T12:00:16;7.13;;;3.08;;
36923;SDS011;22841;50.252;18.688;2022-09-17T12:02:52;8.25;;;3.38;;
36923;SDS011;22841;50.252;18.688;2022-09-17T12:05:34;5.57;;;2.92;;
36923;SDS011;22841;50.252;18.688;2022-09-17T12:13:45;7.82;;;4.10;;
36923;SDS011;22841;50.252;18.688;2022-09-17T12:16:26;5.53;;;3.50;;
36923;SDS011;22841;50.252;18.688;2022-09-17T12:24:25;7.95;;;4.97;;
36923;SDS011;22841;50.252;18.688;2022-09-17T12:29:42;8.75;;;5.35;;
36923;SDS011;22841;50.252;18.688;2022-09-17T12:38:15;6.15;;;5.55;;
36923;SDS011;22841;50.252;18.688;2022-09-17T12:43:40;6.95;;;4.60;;
36923;SDS011;22841;50.252;18.688;2022-09-17T12:49:14;5.35;;;4.38;;
36923;SDS011;22841;50.252;18.688;2022-09-17T12:52:05;6.53;;;4.00;;
36923;SDS011;22841;50.252;18.688;2022-09-17T13:00:23;13.27;;;7.15;;
36923;SDS011;22841;50.252;18.688;2022-09-17T13:05:21;5.90;;;4.65;;
36923;SDS011;22841;50.252;18.688;2022-09-17T13:11:13;6.97;;;5.53;;
36923;SDS011;22841;50.252;18.688;2022-09-17T13:16:52;7.80;;;4.95;;
36923;SDS011;22841;50.252;18.688;2022-09-17T13:22:18;6.05;;;4.75;;
36923;SDS011;22841;50.252;18.688;2022-09-17T13:24:46;40.97;;;6.63;;
36923;SDS011;22841;50.252;18.688;2022-09-17T13:27:26;8.63;;;5.35;;
36923;SDS011;22841;50.252;18.688;2022-09-17T13:32:40;7.13;;;5.93;;
36923;SDS011;22841;50.252;18.688;2022-09-17T13:37:37;14.80;;;5.70;;
36923;SDS011;22841;50.252;18.688;2022-09-17T13:40:26;8.65;;;7.75;;
36923;SDS011;22841;50.252;18.688;2022-09-17T13:45:32;5.35;;;4.50;;
36923;SDS011;22841;50.252;18.688;2022-09-17T13:48:22;6.97;;;4.85;;
36923;SDS011;22841;50.252;18.688;2022-09-17T13:50:54;7.20;;;5.43;;
36923;SDS011;22841;50.252;18.688;2022-09-17T13:53:21;10.55;;;6.40;;
36923;SDS011;22841;50.252;18.688;2022-09-17T13:55:52;9.88;;;6.80;;
36923;SDS011;22841;50.252;18.688;2022-09-17T14:24:25;8.93;;;6.55;;
36923;SDS011;22841;50.252;18.688;2022-09-17T14:26:57;7.47;;;6.00;;
36923;SDS011;22841;50.252;18.688;2022-09-17T14:32:30;7.50;;;5.00;;
36923;SDS011;22841;50.252;18.688;2022-09-17T14:35:23;6.80;;;5.25;;
36923;SDS011;22841;50.252;18.688;2022-09-17T14:38:09;6.70;;;5.15;;
36923;SDS011;22841;50.252;18.688;2022-09-17T14:43:40;17.00;;;10.88;;
36923;SDS011;22841;50.252;18.688;2022-09-17T14:46:19;17.70;;;11.27;;
36923;SDS011;22841;50.252;18.688;2022-09-17T14:53:48;21.75;;;13.30;;
36923;SDS011;22841;50.252;18.688;2022-09-17T14:56:30;18.60;;;12.52;;
36923;SDS011;22841;50.252;18.688;2022-09-17T14:58:58;15.93;;;9.90;;
36923;SDS011;22841;50.252;18.688;2022-09-17T15:01:27;26.15;;;13.85;;
36923;SDS011;22841;50.252;18.688;2022-09-17T15:06:39;8.43;;;6.53;;
36923;SDS011;22841;50.252;18.688;2022-09-17T15:09:13;7.88;;;6.88;;
36923;SDS011;22841;50.252;18.688;2022-09-17T15:11:40;7.47;;;6.22;;
36923;SDS011;22841;50.252;18.688;2022-09-17T15:14:21;7.22;;;5.63;;
36923;SDS011;22841;50.252;18.688;2022-09-17T15:16:53;8.02;;;6.00;;
36923;SDS011;22841;50.252;18.688;2022-09-17T15:19:23;7.22;;;5.50;;
36923;SDS011;22841;50.252;18.688;2022-09-17T15:22:04;13.90;;;4.80;;
36923;SDS011;22841;50.252;18.688;2022-09-17T15:25:20;17.83;;;5.57;;
36923;SDS011;22841;50.252;18.688;2022-09-17T15:27:34;16.25;;;7.28;;
36923;SDS011;22841;50.252;18.688;2022-09-17T15:32:55;12.02;;;9.05;;
36923;SDS011;22841;50.252;18.688;2022-09-17T15:35:25;18.70;;;8.50;;
36923;SDS011;22841;50.252;18.688;2022-09-17T15:42:54;7.43;;;4.90;;
36923;SDS011;22841;50.252;18.688;2022-09-17T15:45:33;7.00;;;4.90;;
36923;SDS011;22841;50.252;18.688;2022-09-17T15:48:04;11.98;;;5.47;;
36923;SDS011;22841;50.252;18.688;2022-09-17T15:50:33;8.30;;;5.85;;
36923;SDS011;22841;50.252;18.688;2022-09-17T16:09:11;11.45;;;7.38;;
36923;SDS011;22841;50.252;18.688;2022-09-17T16:11:49;25.20;;;14.52;;
36923;SDS011;22841;50.252;18.688;2022-09-17T16:14:15;67.45;;;38.13;;
36923;SDS011;22841;50.252;18.688;2022-09-17T16:16:41;15.40;;;11.95;;
36923;SDS011;22841;50.252;18.688;2022-09-17T16:19:08;12.82;;;10.68;;
36923;SDS011;22841;50.252;18.688;2022-09-17T16:21:39;15.30;;;11.20;;
36923;SDS011;22841;50.252;18.688;2022-09-17T16:24:05;33.72;;;21.85;;
36923;SDS011;22841;50.252;18.688;2022-09-17T16:26:31;55.85;;;30.42;;
36923;SDS011;22841;50.252;18.688;2022-09-17T16:29:33;26.88;;;16.75;;
36923;SDS011;22841;50.252;18.688;2022-09-17T16:31:52;53.33;;;26.23;;
36923;SDS011;22841;50.252;18.688;2022-09-17T16:34:18;31.02;;;21.75;;
36923;SDS011;22841;50.252;18.688;2022-09-17T16:36:44;39.58;;;27.60;;
36923;SDS011;22841;50.252;18.688;2022-09-17T16:39:10;30.55;;;17.92;;
36923;SDS011;22841;50.252;18.688;2022-09-17T16:41:36;33.97;;;19.08;;
36923;SDS011;22841;50.252;18.688;2022-09-17T16:44:02;16.02;;;10.05;;
36923;SDS011;22841;50.252;18.688;2022-09-17T16:46:28;12.30;;;8.25;;
36923;SDS011;22841;50.252;18.688;2022-09-17T16:48:54;12.52;;;8.93;;
36923;SDS011;22841;50.252;18.688;2022-09-17T16:51:21;16.27;;;9.63;;
36923;SDS011;22841;50.252;18.688;2022-09-17T16:53:47;13.63;;;8.35;;
36923;SDS011;22841;50.252;18.688;2022-09-17T16:56:14;10.93;;;8.05;;
36923;SDS011;22841;50.252;18.688;2022-09-17T16:58:41;11.90;;;7.90;;
36923;SDS011;22841;50.252;18.688;2022-09-17T17:01:14;18.63;;;10.20;;
36923;SDS011;22841;50.252;18.688;2022-09-17T17:03:41;16.30;;;10.68;;
36923;SDS011;22841;50.252;18.688;2022-09-17T17:06:16;20.88;;;11.77;;
36923;SDS011;22841;50.252;18.688;2022-09-17T17:08:43;32.55;;;17.65;;
36923;SDS011;22841;50.252;18.688;2022-09-17T17:11:09;43.15;;;19.90;;
36923;SDS011;22841;50.252;18.688;2022-09-17T17:13:35;30.13;;;14.27;;
36923;SDS011;22841;50.252;18.688;2022-09-17T17:16:08;17.17;;;10.85;;
36923;SDS011;22841;50.252;18.688;2022-09-17T17:18:35;16.00;;;10.05;;
36923;SDS011;22841;50.252;18.688;2022-09-17T17:21:05;11.75;;;7.90;;
36923;SDS011;22841;50.252;18.688;2022-09-17T17:23:32;18.20;;;9.20;;
36923;SDS011;22841;50.252;18.688;2022-09-17T17:25:59;20.42;;;8.05;;
36923;SDS011;22841;50.252;18.688;2022-09-17T17:28:31;10.30;;;7.03;;
36923;SDS011;22841;50.252;18.688;2022-09-17T17:30:59;8.40;;;5.72;;
36923;SDS011;22841;50.252;18.688;2022-09-17T17:33:25;14.75;;;7.13;;
36923;SDS011;22841;50.252;18.688;2022-09-17T17:35:52;22.15;;;10.80;;
36923;SDS011;22841;50.252;18.688;2022-09-17T17:38:18;19.23;;;9.02;;
36923;SDS011;22841;50.252;18.688;2022-09-17T17:40:44;16.73;;;10.63;;
36923;SDS011;22841;50.252;18.688;2022-09-17T17:43:10;11.77;;;8.23;;
36923;SDS011;22841;50.252;18.688;2022-09-17T17:45:37;20.48;;;8.77;;
36923;SDS011;22841;50.252;18.688;2022-09-17T17:48:04;12.45;;;8.98;;
36923;SDS011;22841;50.252;18.688;2022-09-17T17:50:30;9.57;;;7.22;;
36923;SDS011;22841;50.252;18.688;2022-09-17T17:52:57;13.90;;;8.75;;
36923;SDS011;22841;50.252;18.688;2022-09-17T17:55:23;12.55;;;8.70;;
36923;SDS011;22841;50.252;18.688;2022-09-17T17:57:54;14.07;;;9.55;;
36923;SDS011;22841;50.252;18.688;2022-09-17T18:00:21;30.65;;;18.52;;
36923;SDS011;22841;50.252;18.688;2022-09-17T18:02:48;12.38;;;9.60;;
36923;SDS011;22841;50.252;18.688;2022-09-17T18:05:15;20.95;;;12.50;;
36923;SDS011;22841;50.252;18.688;2022-09-17T18:07:41;15.55;;;9.23;;
36923;SDS011;22841;50.252;18.688;2022-09-17T18:10:07;12.68;;;10.65;;
36923;SDS011;22841;50.252;18.688;2022-09-17T18:12:33;9.35;;;7.15;;
36923;SDS011;22841;50.252;18.688;2022-09-17T18:15:02;10.25;;;7.38;;
36923;SDS011;22841;50.252;18.688;2022-09-17T18:17:29;11.07;;;8.15;;
36923;SDS011;22841;50.252;18.688;2022-09-17T18:19:55;11.30;;;8.48;;
36923;SDS011;22841;50.252;18.688;2022-09-17T18:22:22;23.77;;;9.98;;
36923;SDS011;22841;50.252;18.688;2022-09-17T18:24:48;11.77;;;8.38;;
36923;SDS011;22841;50.252;18.688;2022-09-17T18:27:14;11.88;;;9.00;;
36923;SDS011;22841;50.252;18.688;2022-09-17T18:29:40;17.10;;;8.75;;
36923;SDS011;22841;50.252;18.688;2022-09-17T18:32:08;10.45;;;7.32;;
36923;SDS011;22841;50.252;18.688;2022-09-17T18:34:34;13.02;;;7.60;;
36923;SDS011;22841;50.252;18.688;2022-09-17T18:37:00;12.30;;;10.00;;
36923;SDS011;22841;50.252;18.688;2022-09-17T18:39:28;11.80;;;8.80;;
36923;SDS011;22841;50.252;18.688;2022-09-17T18:41:55;15.18;;;7.25;;